Pdte. carlos Ibañez del Campo Airport
SCCI : rendu visible

Aérodrome :











RETROUVEZ-NOUS SUR...

 
LOGIN :

S'inscrire | Disclaimer

   EN    FR    IT 

 









Légende :    VFR   VFR Marginal   IFR   IFR Intensif   IFR Très Intensif
Visi : 
Plafond : 
>= 8 km
>= 3000ft
5 à 8 km
1000 à 3000 ft
1500m à 5 km
500 à 1000 ft
800 à 1500m
200 à 500 ft
< 800m
< 200 ft
Symboles :   Orages  Brouillard  Fortes neiges  Fortes précipitations  Vent > 20 kt






- Altitude de l'aérodrome : 139 ft
- Code IATA : PUQ


SCCI - Pdte. carlos Ibañez del Campo

DERNIER METAR :
  • 012000Z 24016KT 9999 SCT030 05/01 Q0996 NOSIG

METARs EXPIRÉS :
  • 011900Z 27024KT 9999 BKN030 06/03 Q0994 NOSIG
  • 011800Z 29021KT 9999 -SHRA BKN030 08/06 Q0992 NOSIG
  • 011739Z 29019G30KT 5000 SHRA BKN030 09/05 Q0992 NOSIG

TAF COR TAF SCCI
Valide du 01 à 18h jusqu'au 02 à 18h UTC


011739Z 0118/0218 32015KT 8000 -SHRA SCT030 BKN040 TN01/0212Z TX10/0118Z
BECMG 0119/0121 28020KT 9999 NSW SCT036
BECMG 0200/0202 24020G30KT 8000 -SHRA SCT026
TEMPO 0203/0212 24025G35KT 3000 -SHSN -SHRASN BKN015TCU
BECMG 0215/0217 9999 -SHRA SCT036
FIR SCCZ / Amérique du Sud



MET'MAP, la Météo Aéronautique d'un coup d'oeil ! - Copyright ORBIFLY Décembre 2007 - Disclaimer

ORBIFLY MET'MAP TEAM :

Programmation & Développement : Alexandra Zaïnal
Sur une idée originale de : Baudouin d'Aumeries
Assistance à la programmation : Marc-Olivier Méhu
Soutien technique & logistique : Manuel Goepfert

Contact : metmap@orbifly.com




SOURCES & CREDITS :

   NOAA       Earth
Advisory